Time;durP1;ratioP1;P1;durP2;ratioP2;P2;SDS_P1;SDS_P2;PMS_P1;PMS_P2;Temp;Humidity;BMP_temperature;BMP_pressure;BME280_temperature;BME280_humidity;BME280_pressure;Samples;Min_cycle;Max_cycle;Signal;HPM_P1;HPM_P2
2023/01/08 00:00:08;;;;;;;31.77;2.97;;;9.20;99.90;;;;;;5026220;28;20032;-83
2023/01/08 00:02:33;;;;;;;36.13;3.67;;;9.20;99.90;;;;;;5027718;28;20033;-83
2023/01/08 00:04:59;;;;;;;28.00;3.35;;;9.10;99.90;;;;;;5046021;28;20570;-83
2023/01/08 00:07:25;;;;;;;21.42;2.50;;;9.10;99.90;;;;;;5046627;28;20059;-83
2023/01/08 00:09:51;;;;;;;18.70;2.35;;;9.10;99.90;;;;;;5050848;28;20111;-83
2023/01/08 00:12:16;;;;;;;24.85;2.97;;;9.20;99.90;;;;;;5025381;28;20105;-83
2023/01/08 00:14:42;;;;;;;18.55;2.90;;;9.30;99.90;;;;;;5026203;28;20025;-83
2023/01/08 00:17:07;;;;;;;21.25;2.80;;;9.30;99.90;;;;;;5045321;28;20040;-82
2023/01/08 00:19:33;;;;;;;18.38;2.40;;;9.20;99.90;;;;;;5026609;28;20029;-83
2023/01/08 00:21:59;;;;;;;17.17;1.55;;;9.10;99.90;;;;;;5026541;28;20717;-83
2023/01/08 00:24:24;;;;;;;13.52;1.95;;;9.00;99.90;;;;;;5046042;28;20510;-83
2023/01/08 00:26:50;;;;;;;13.57;1.63;;;8.90;99.90;;;;;;5045763;28;20060;-83
2023/01/08 00:29:15;;;;;;;13.60;1.35;;;8.80;99.90;;;;;;5029577;28;20506;-83
2023/01/08 00:31:41;;;;;;;14.65;1.85;;;8.70;99.90;;;;;;5051648;28;20025;-82
2023/01/08 00:34:06;;;;;;;12.20;1.52;;;8.70;99.90;;;;;;5044237;28;20040;-82
2023/01/08 00:36:32;;;;;;;13.77;1.70;;;8.80;99.90;;;;;;5027759;28;20384;-83
2023/01/08 00:38:59;;;;;;;18.60;1.73;;;8.90;99.90;;;;;;5028178;28;20045;-83
2023/01/08 00:41:24;;;;;;;18.98;2.47;;;8.90;99.90;;;;;;5045812;28;20053;-82
2023/01/08 00:43:50;;;;;;;17.05;2.60;;;9.00;99.90;;;;;;5044733;28;20575;-83
2023/01/08 00:46:16;;;;;;;19.50;3.05;;;9.10;99.90;;;;;;5025461;28;20388;-83
2023/01/08 00:48:41;;;;;;;28.45;4.07;;;9.10;99.90;;;;;;5041812;28;20112;-84
2023/01/08 00:51:08;;;;;;;27.45;2.75;;;9.10;99.90;;;;;;5045806;28;20025;-82
2023/01/08 00:53:33;;;;;;;18.63;3.17;;;9.00;99.90;;;;;;5044355;28;20032;-83
2023/01/08 00:56:08;;;;;;;22.92;2.60;;;9.00;99.90;;;;;;5026826;28;20436;-83
2023/01/08 00:58:34;;;;;;;28.25;3.28;;;9.00;99.90;;;;;;5017816;28;20035;-83
2023/01/08 01:01:01;;;;;;;30.20;2.78;;;9.00;99.90;;;;;;5027110;28;20110;-83
2023/01/08 01:03:26;;;;;;;36.40;3.78;;;9.00;99.90;;;;;;5043566;28;20029;-82
2023/01/08 01:06:05;;;;;;;24.63;2.63;;;9.10;99.90;;;;;;5026855;28;20036;-83
2023/01/08 01:08:30;;;;;;;26.98;2.78;;;9.10;99.90;;;;;;5027638;28;20037;-82
2023/01/08 01:10:56;;;;;;;21.05;3.00;;;9.20;99.90;;;;;;5026157;28;20041;-83
2023/01/08 01:13:22;;;;;;;22.80;2.83;;;9.30;99.90;;;;;;5026181;28;20203;-82
2023/01/08 01:16:01;;;;;;;35.42;3.78;;;9.30;99.90;;;;;;5028412;28;20045;-83
2023/01/08 01:18:28;;;;;;;18.17;2.97;;;9.40;99.90;;;;;;5026297;28;20033;-83
2023/01/08 01:20:53;;;;;;;29.00;3.35;;;9.50;99.90;;;;;;5027757;28;20021;-83
2023/01/08 01:23:19;;;;;;;26.10;2.95;;;9.50;99.90;;;;;;5026051;28;20194;-83
2023/01/08 01:25:45;;;;;;;22.25;2.38;;;9.50;99.90;;;;;;5026687;28;20036;-83
2023/01/08 01:28:10;;;;;;;20.40;2.83;;;9.50;99.90;;;;;;5026011;28;20506;-83
2023/01/08 01:30:36;;;;;;;23.55;3.00;;;9.50;99.90;;;;;;5045585;28;20365;-83
2023/01/08 01:33:01;;;;;;;23.58;3.72;;;9.60;99.90;;;;;;5045028;28;20033;-83
2023/01/08 01:35:27;;;;;;;30.13;3.28;;;9.50;99.90;;;;;;5044998;28;20024;-83
2023/01/08 01:37:53;;;;;;;22.63;2.90;;;9.50;99.90;;;;;;5044177;28;20033;-83
2023/01/08 01:40:18;;;;;;;26.60;3.50;;;9.40;99.90;;;;;;5027232;28;20132;-82
2023/01/08 01:42:44;;;;;;;15.80;2.63;;;9.30;99.90;;;;;;5045064;28;20037;-82
2023/01/08 01:45:20;;;;;;;22.77;3.10;;;9.20;99.90;;;;;;5025069;28;20049;-82
2023/01/08 01:47:55;;;;;;;25.58;2.92;;;9.10;99.90;;;;;;5057987;28;20037;-83
2023/01/08 01:50:30;;;;;;;26.33;2.75;;;9.00;99.90;;;;;;5047906;28;20086;-82
2023/01/08 01:53:25;;;;;;;17.60;2.90;;;9.00;99.90;;;;;;5048363;28;20110;-82
2023/01/08 01:55:52;;;;;;;31.05;3.33;;;8.90;99.90;;;;;;5021677;28;20045;-83
2023/01/08 01:58:29;;;;;;;22.30;3.17;;;8.90;99.90;;;;;;5049481;28;20036;-82
2023/01/08 02:00:58;;;;;;;29.85;2.88;;;8.80;99.90;;;;;;5028543;28;20039;-83
2023/01/08 02:03:28;;;;;;;23.55;2.63;;;8.80;99.90;;;;;;5047444;28;20064;-83
2023/01/08 02:06:03;;;;;;;27.02;2.85;;;8.80;99.90;;;;;;5050645;28;20115;-82
2023/01/08 02:08:48;;;;;;;27.05;2.78;;;8.80;99.90;;;;;;5049170;28;20029;-83
2023/01/08 02:12:15;;;;;;;24.05;3.28;;;8.90;99.90;;;;;;5029178;28;20467;-83
2023/01/08 02:14:46;;;;;;;28.13;3.03;;;8.90;99.90;;;;;;5047968;28;20052;-83
2023/01/08 02:17:17;;;;;;;20.67;2.80;;;9.00;99.90;;;;;;5029200;28;20029;-82
2023/01/08 02:19:51;;;;;;;25.52;2.97;;;9.00;99.90;;;;;;5036573;28;20108;-82
2023/01/08 02:22:35;;;;;;;24.73;3.15;;;9.00;99.90;;;;;;5034892;28;20033;-82
2023/01/08 02:25:04;;;;;;;27.52;2.58;;;8.90;99.90;;;;;;5029096;28;20476;-83
2023/01/08 02:27:33;;;;;;;31.92;3.13;;;8.90;99.90;;;;;;5030444;28;20040;-83
2023/01/08 02:30:00;;;;;;;28.35;2.78;;;8.90;99.90;;;;;;5029790;28;20631;-83
2023/01/08 02:32:35;;;;;;;32.40;4.00;;;9.00;99.90;;;;;;5030872;28;20029;-83
2023/01/08 02:35:02;;;;;;;25.70;2.90;;;9.10;99.90;;;;;;5042170;28;20131;-83
2023/01/08 02:37:27;;;;;;;25.75;4.40;;;9.10;99.90;;;;;;5029516;28;20561;-83
2023/01/08 02:40:02;;;;;;;21.15;2.70;;;9.20;99.90;;;;;;5028525;28;20032;-83
2023/01/08 02:42:49;;;;;;;23.35;3.35;;;9.30;99.90;;;;;;5029935;28;20033;-82
2023/01/08 02:45:45;;;;;;;30.85;3.40;;;9.30;99.90;;;;;;5025855;28;20085;-83
2023/01/08 02:48:22;;;;;;;32.13;3.50;;;9.30;99.90;;;;;;5046996;28;20060;-83
2023/01/08 02:50:52;;;;;;;23.38;3.60;;;9.30;99.90;;;;;;5038353;28;20041;-82
2023/01/08 02:53:21;;;;;;;29.80;3.75;;;9.30;99.90;;;;;;5028249;28;20031;-82
2023/01/08 02:56:10;;;;;;;31.90;3.40;;;9.30;99.90;;;;;;5062664;28;20083;-83
2023/01/08 02:58:38;;;;;;;27.02;4.03;;;9.30;99.90;;;;;;5038620;28;20032;-82
2023/01/08 03:01:08;;;;;;;25.13;3.20;;;9.30;99.90;;;;;;5061075;28;20312;-82
2023/01/08 03:03:36;;;;;;;30.67;3.92;;;9.30;99.90;;;;;;5048133;28;20017;-83
2023/01/08 03:06:08;;;;;;;23.65;2.65;;;9.20;99.90;;;;;;5064541;28;20029;-83
2023/01/08 03:08:37;;;;;;;22.25;2.90;;;9.20;99.90;;;;;;5061475;28;20286;-82
2023/01/08 03:11:05;;;;;;;24.75;3.03;;;9.10;99.90;;;;;;5046411;28;20039;-82
2023/01/08 03:13:39;;;;;;;21.25;2.55;;;9.10;99.90;;;;;;5057093;28;20252;-83
2023/01/08 03:16:10;;;;;;;29.88;3.67;;;9.10;99.90;;;;;;5042893;28;20100;-82
2023/01/08 03:18:43;;;;;;;21.23;2.35;;;9.00;99.90;;;;;;5048647;28;20387;-82
2023/01/08 03:21:09;;;;;;;26.63;3.58;;;9.00;99.90;;;;;;5043869;28;20024;-83
2023/01/08 03:23:37;;;;;;;25.70;3.25;;;9.00;99.90;;;;;;5047854;28;20036;-82
2023/01/08 03:26:05;;;;;;;22.10;3.25;;;9.10;99.90;;;;;;5066857;28;20036;-83
2023/01/08 03:28:36;;;;;;;26.88;3.88;;;9.10;99.90;;;;;;5047543;28;20047;-82
2023/01/08 03:31:03;;;;;;;24.48;3.70;;;9.10;99.90;;;;;;5049607;28;20171;-82
2023/01/08 03:33:30;;;;;;;23.08;2.90;;;9.20;99.90;;;;;;5065876;28;20043;-83
2023/01/08 03:36:00;;;;;;;20.50;3.35;;;9.20;99.90;;;;;;5046885;28;20448;-82
2023/01/08 03:38:32;;;;;;;25.80;3.08;;;9.30;99.90;;;;;;5066163;28;20048;-82
2023/01/08 03:41:05;;;;;;;24.35;2.92;;;9.20;99.90;;;;;;5065424;28;20032;-82
2023/01/08 03:43:31;;;;;;;20.90;2.72;;;9.20;99.90;;;;;;5046113;28;20020;-82
2023/01/08 03:46:03;;;;;;;21.50;2.90;;;9.20;99.90;;;;;;5064049;28;20051;-82
2023/01/08 03:48:31;;;;;;;17.77;2.97;;;9.30;99.90;;;;;;5048551;28;20025;-82
2023/01/08 03:50:57;;;;;;;27.38;3.90;;;9.30;99.90;;;;;;5065989;28;20406;-83
2023/01/08 03:53:22;;;;;;;23.83;2.92;;;9.20;99.90;;;;;;5066148;28;20024;-82
2023/01/08 03:55:48;;;;;;;23.45;3.47;;;9.20;99.90;;;;;;5050331;28;20135;-82
2023/01/08 03:58:13;;;;;;;15.18;2.50;;;9.30;99.90;;;;;;5065391;28;20461;-82
2023/01/08 04:00:39;;;;;;;21.42;2.85;;;9.30;99.90;;;;;;5066637;28;20036;-83
2023/01/08 04:03:05;;;;;;;22.60;3.20;;;9.40;99.90;;;;;;5064970;28;20111;-82
2023/01/08 04:05:30;;;;;;;20.83;2.50;;;9.30;99.90;;;;;;5065963;28;20032;-82
2023/01/08 04:07:57;;;;;;;26.23;2.70;;;9.30;99.90;;;;;;5066203;28;20033;-82
2023/01/08 04:10:24;;;;;;;19.30;3.25;;;9.30;99.90;;;;;;5057394;28;20036;-82
2023/01/08 04:12:50;;;;;;;22.38;2.47;;;9.30;99.90;;;;;;5066024;28;20025;-82
2023/01/08 04:15:16;;;;;;;37.42;3.42;;;9.30;99.90;;;;;;5064174;28;20039;-82
2023/01/08 04:17:42;;;;;;;22.98;2.70;;;9.30;99.90;;;;;;5046100;28;20029;-82
2023/01/08 04:20:08;;;;;;;26.42;3.17;;;9.20;99.90;;;;;;5065440;28;20029;-82
2023/01/08 04:22:34;;;;;;;19.05;2.72;;;9.30;99.90;;;;;;5048253;28;20021;-83
2023/01/08 04:24:59;;;;;;;22.23;3.17;;;9.30;99.90;;;;;;5051221;28;20038;-82
2023/01/08 04:27:25;;;;;;;14.27;2.28;;;9.30;99.90;;;;;;5065091;28;20487;-83
2023/01/08 04:29:51;;;;;;;22.50;2.85;;;9.40;99.90;;;;;;5045030;28;20110;-83
2023/01/08 04:32:17;;;;;;;21.88;3.95;;;9.30;99.90;;;;;;5062992;28;20400;-83
2023/01/08 04:34:42;;;;;;;22.02;3.05;;;9.40;99.90;;;;;;5060155;28;20097;-82
2023/01/08 04:37:08;;;;;;;22.30;3.42;;;9.30;99.90;;;;;;5046657;28;20460;-82
2023/01/08 04:39:33;;;;;;;19.77;2.67;;;9.20;99.90;;;;;;5046602;28;20035;-83
2023/01/08 04:41:59;;;;;;;22.05;2.50;;;9.20;99.90;;;;;;5046435;28;20131;-82
2023/01/08 04:44:25;;;;;;;24.63;3.22;;;9.20;99.90;;;;;;5063571;28;20016;-83
2023/01/08 04:46:50;;;;;;;20.02;3.10;;;9.20;99.90;;;;;;5056511;28;20493;-83
2023/01/08 04:49:16;;;;;;;28.05;2.92;;;9.20;99.90;;;;;;5047991;28;20390;-82
2023/01/08 04:51:41;;;;;;;21.45;2.80;;;9.20;99.90;;;;;;5060040;28;20037;-82
2023/01/08 04:54:07;;;;;;;19.65;2.33;;;9.10;99.90;;;;;;5027687;28;20029;-83
2023/01/08 04:56:33;;;;;;;24.27;2.80;;;9.10;99.90;;;;;;5081234;28;20041;-82
2023/01/08 04:58:59;;;;;;;21.77;2.35;;;9.10;99.90;;;;;;5055420;28;20103;-81
2023/01/08 05:01:26;;;;;;;22.17;3.42;;;9.10;99.90;;;;;;5064480;28;20479;-82
2023/01/08 05:03:57;;;;;;;19.25;3.38;;;9.20;99.90;;;;;;5062484;28;20029;-83
2023/01/08 05:06:23;;;;;;;26.17;2.72;;;9.20;99.90;;;;;;5051631;28;20041;-82
2023/01/08 05:08:48;;;;;;;22.38;3.30;;;9.30;99.90;;;;;;5059715;28;20054;-81
2023/01/08 05:11:14;;;;;;;18.38;2.75;;;9.30;99.90;;;;;;5064143;28;20037;-82
2023/01/08 05:13:40;;;;;;;17.15;2.53;;;9.40;99.90;;;;;;5050631;28;20029;-81
2023/01/08 05:16:06;;;;;;;23.13;2.30;;;9.40;99.90;;;;;;5044735;28;20097;-82
2023/01/08 05:18:31;;;;;;;22.30;2.42;;;9.40;99.90;;;;;;5044093;28;20033;-81
2023/01/08 05:21:01;;;;;;;12.82;2.15;;;9.40;99.90;;;;;;5081361;28;20029;-83
2023/01/08 05:23:28;;;;;;;10.98;1.17;;;9.20;99.90;;;;;;5065902;28;20036;-82
2023/01/08 05:25:58;;;;;;;5.40;0.77;;;8.60;99.90;;;;;;5058363;28;20407;-82
2023/01/08 05:28:24;;;;;;;7.30;0.77;;;7.80;99.90;;;;;;5055880;28;20029;-82
2023/01/08 05:30:50;;;;;;;4.70;0.80;;;7.30;99.90;;;;;;5053114;28;20107;-81
2023/01/08 05:33:15;;;;;;;3.10;0.60;;;6.90;99.90;;;;;;5057733;28;20040;-80
2023/01/08 05:35:41;;;;;;;5.15;0.77;;;6.70;99.90;;;;;;5060469;28;20143;-82
2023/01/08 05:38:06;;;;;;;3.70;0.80;;;6.60;99.90;;;;;;5056791;28;20028;-82
2023/01/08 05:40:32;;;;;;;6.53;0.65;;;6.60;99.90;;;;;;5052315;28;20028;-83
2023/01/08 05:42:59;;;;;;;13.50;1.23;;;6.60;99.90;;;;;;5070394;28;20048;-82
2023/01/08 05:45:25;;;;;;;6.30;1.30;;;6.60;99.90;;;;;;5061688;28;20074;-83
2023/01/08 05:47:51;;;;;;;8.63;1.20;;;6.70;99.90;;;;;;5060884;28;20032;-83
2023/01/08 05:50:16;;;;;;;13.25;1.58;;;6.80;99.90;;;;;;5050918;28;20037;-83
2023/01/08 05:52:42;;;;;;;15.75;1.55;;;6.90;99.90;;;;;;5050939;28;20029;-82
2023/01/08 05:55:08;;;;;;;12.23;1.70;;;7.10;99.90;;;;;;5041982;28;20496;-82
2023/01/08 05:57:34;;;;;;;12.63;1.55;;;7.20;99.90;;;;;;5029765;28;20031;-83
2023/01/08 05:59:59;;;;;;;20.45;2.17;;;7.20;99.90;;;;;;5047411;28;20310;-83
2023/01/08 06:02:25;;;;;;;15.10;1.67;;;7.20;99.90;;;;;;5028855;28;20029;-81
2023/01/08 06:04:51;;;;;;;9.40;1.10;;;7.30;99.90;;;;;;5030541;28;20079;-82
2023/01/08 06:07:16;;;;;;;14.05;1.90;;;7.30;99.90;;;;;;5046221;28;20051;-82
2023/01/08 06:09:42;;;;;;;12.23;1.52;;;7.40;99.90;;;;;;5029477;28;20542;-82
2023/01/08 06:12:08;;;;;;;19.33;1.70;;;7.40;99.90;;;;;;5028325;28;20156;-82
2023/01/08 06:14:33;;;;;;;18.65;1.60;;;7.50;99.90;;;;;;5028493;28;20056;-82
2023/01/08 06:16:59;;;;;;;11.55;1.40;;;7.50;99.90;;;;;;5048181;28;20020;-82
2023/01/08 06:19:25;;;;;;;14.18;1.95;;;7.50;99.90;;;;;;5028665;28;20033;-82
2023/01/08 06:21:50;;;;;;;9.10;1.10;;;7.50;99.90;;;;;;5030434;28;20021;-82
2023/01/08 06:24:16;;;;;;;7.75;0.90;;;7.50;99.90;;;;;;5029627;28;20063;-82
2023/01/08 06:26:41;;;;;;;4.75;0.93;;;7.50;99.90;;;;;;5026226;28;20079;-82
2023/01/08 06:29:07;;;;;;;11.77;0.85;;;7.50;99.90;;;;;;5024648;28;20056;-82
2023/01/08 06:31:33;;;;;;;8.35;0.85;;;7.40;99.90;;;;;;5029339;28;20105;-82
2023/01/08 06:33:59;;;;;;;8.98;1.00;;;7.30;99.90;;;;;;5029898;28;20073;-82
2023/01/08 06:36:24;;;;;;;10.00;1.02;;;7.30;99.90;;;;;;5065608;28;20043;-82
2023/01/08 06:38:50;;;;;;;10.50;1.30;;;7.30;99.90;;;;;;5053608;28;20421;-82
2023/01/08 06:41:15;;;;;;;8.43;1.13;;;7.40;99.90;;;;;;5041583;28;20121;-83
2023/01/08 06:43:41;;;;;;;18.70;1.60;;;7.50;99.90;;;;;;5021185;28;20036;-82
2023/01/08 06:46:08;;;;;;;22.67;2.15;;;7.60;99.90;;;;;;5019475;28;20037;-82
2023/01/08 06:48:34;;;;;;;11.77;2.67;;;7.70;99.90;;;;;;5026505;28;20041;-81
2023/01/08 06:51:01;;;;;;;12.75;1.55;;;7.80;99.90;;;;;;5019118;28;20504;-82
2023/01/08 06:53:27;;;;;;;13.90;2.53;;;7.80;99.90;;;;;;5023825;28;20029;-83
2023/01/08 06:55:55;;;;;;;11.60;1.80;;;7.80;99.90;;;;;;5035037;28;20522;-82
2023/01/08 06:58:22;;;;;;;10.82;1.45;;;7.90;99.90;;;;;;5066613;28;20036;-82
2023/01/08 07:00:48;;;;;;;16.77;1.52;;;7.90;99.90;;;;;;5066123;28;20114;-82
2023/01/08 07:03:14;;;;;;;9.88;1.23;;;7.90;99.90;;;;;;5066720;28;20536;-82
2023/01/08 07:05:39;;;;;;;4.93;0.93;;;7.90;99.90;;;;;;5066938;28;20055;-83
2023/01/08 07:08:05;;;;;;;10.95;1.00;;;7.90;99.90;;;;;;5051101;28;20082;-83
2023/01/08 07:10:31;;;;;;;11.05;1.23;;;7.80;99.90;;;;;;5063599;28;20036;-82
2023/01/08 07:12:57;;;;;;;11.10;1.85;;;7.80;99.90;;;;;;5067189;28;20115;-82
2023/01/08 07:15:23;;;;;;;12.65;1.95;;;7.90;99.90;;;;;;5049305;28;20305;-82
2023/01/08 07:17:48;;;;;;;15.43;1.67;;;8.00;99.90;;;;;;5064517;28;20437;-82
2023/01/08 07:20:14;;;;;;;19.15;1.65;;;8.10;99.90;;;;;;5049269;28;20055;-82
2023/01/08 07:22:40;;;;;;;22.90;2.28;;;8.20;99.90;;;;;;5070049;28;20205;-82
2023/01/08 07:25:06;;;;;;;13.45;1.92;;;8.20;99.90;;;;;;5071534;28;20085;-82
2023/01/08 07:27:32;;;;;;;14.13;1.70;;;8.20;99.90;;;;;;5073946;28;20055;-82
2023/01/08 07:29:57;;;;;;;23.88;2.35;;;8.20;99.90;;;;;;5052068;28;20068;-82
2023/01/08 07:32:23;;;;;;;16.25;2.65;;;8.30;99.90;;;;;;5049647;28;20372;-82
2023/01/08 07:34:49;;;;;;;17.75;2.20;;;8.50;99.90;;;;;;5046532;28;20039;-82
2023/01/08 07:37:14;;;;;;;23.65;2.30;;;8.50;99.90;;;;;;5049173;28;20028;-83
2023/01/08 07:39:40;;;;;;;17.25;2.00;;;8.60;99.90;;;;;;5067914;28;20653;-82
2023/01/08 07:42:05;;;;;;;19.50;2.03;;;8.60;99.90;;;;;;5049212;28;20036;-83
2023/01/08 07:44:31;;;;;;;18.92;2.38;;;8.70;99.90;;;;;;5048353;28;20028;-82
2023/01/08 07:46:57;;;;;;;12.07;1.95;;;8.70;99.90;;;;;;5063501;28;20032;-82
2023/01/08 07:49:22;;;;;;;25.05;3.55;;;8.80;99.90;;;;;;5045068;28;20047;-82
2023/01/08 07:51:48;;;;;;;22.77;3.22;;;8.80;99.90;;;;;;5050485;28;20077;-82
2023/01/08 07:54:14;;;;;;;20.08;3.00;;;8.80;99.90;;;;;;5066932;28;20054;-82
2023/01/08 07:56:39;;;;;;;25.20;4.03;;;8.80;99.90;;;;;;5063459;28;20625;-82
2023/01/08 07:59:05;;;;;;;17.48;2.20;;;8.80;99.90;;;;;;5034593;28;20031;-82
2023/01/08 08:01:30;;;;;;;19.83;2.08;;;8.60;99.90;;;;;;5040065;28;20081;-83
2023/01/08 08:03:56;;;;;;;19.48;2.72;;;8.60;99.90;;;;;;5036606;28;20407;-83
2023/01/08 08:06:22;;;;;;;24.17;3.05;;;8.60;99.90;;;;;;5043862;28;20021;-83
2023/01/08 08:08:47;;;;;;;19.50;2.17;;;8.70;99.90;;;;;;5057968;28;20037;-82
2023/01/08 08:11:13;;;;;;;23.77;3.45;;;8.70;99.90;;;;;;5048549;28;20442;-82
2023/01/08 08:13:43;;;;;;;22.98;3.00;;;8.70;99.90;;;;;;5065442;28;20545;-82
2023/01/08 08:16:09;;;;;;;21.65;2.88;;;8.80;99.90;;;;;;5047201;28;20028;-82
2023/01/08 08:18:35;;;;;;;15.13;2.05;;;8.80;99.90;;;;;;5050199;28;20415;-81
2023/01/08 08:21:00;;;;;;;21.77;2.08;;;8.90;99.90;;;;;;5065829;28;20029;-82
2023/01/08 08:23:26;;;;;;;28.33;3.13;;;9.00;99.90;;;;;;5072847;28;20028;-81
2023/01/08 08:25:52;;;;;;;19.02;2.70;;;9.00;99.90;;;;;;5047610;28;20618;-82
2023/01/08 08:28:18;;;;;;;19.45;2.38;;;9.00;99.90;;;;;;5043151;28;20033;-82
2023/01/08 08:30:43;;;;;;;19.20;2.13;;;9.00;99.90;;;;;;5035482;28;20040;-82
2023/01/08 08:33:10;;;;;;;16.67;2.28;;;9.00;99.90;;;;;;5062238;28;20314;-81
2023/01/08 08:35:36;;;;;;;23.92;3.15;;;9.10;99.90;;;;;;5070621;28;20094;-82
2023/01/08 08:38:02;;;;;;;28.15;2.97;;;9.20;99.90;;;;;;5065855;28;20040;-82
2023/01/08 08:40:28;;;;;;;16.58;2.33;;;9.30;99.90;;;;;;5066792;28;20024;-82
2023/01/08 08:42:58;;;;;;;23.27;2.90;;;9.30;99.90;;;;;;5066262;28;20108;-82
2023/01/08 08:45:24;;;;;;;13.05;2.10;;;9.50;99.90;;;;;;5061894;28;20036;-81
2023/01/08 08:47:50;;;;;;;30.65;3.15;;;9.60;99.90;;;;;;5071052;28;20098;-81
2023/01/08 08:50:16;;;;;;;20.52;2.45;;;9.60;99.90;;;;;;5065661;28;20124;-82
2023/01/08 08:52:43;;;;;;;17.02;2.35;;;9.60;99.90;;;;;;5065043;28;20025;-82
2023/01/08 08:55:12;;;;;;;27.08;3.22;;;9.60;99.90;;;;;;5046160;28;20403;-82
2023/01/08 08:57:37;;;;;;;25.70;3.08;;;9.70;99.90;;;;;;5044627;28;20532;-82
2023/01/08 09:00:03;;;;;;;21.92;2.50;;;9.70;99.90;;;;;;5043939;28;20049;-82
2023/01/08 09:02:29;;;;;;;22.52;2.92;;;9.60;99.90;;;;;;5064262;28;20138;-82
2023/01/08 09:04:54;;;;;;;21.90;2.58;;;9.40;99.90;;;;;;5047074;28;20223;-82
2023/01/08 09:07:20;;;;;;;21.65;2.83;;;9.30;99.90;;;;;;5063292;28;20025;-82
2023/01/08 09:09:45;;;;;;;24.73;2.45;;;9.30;99.90;;;;;;5047892;28;20043;-82
2023/01/08 09:12:11;;;;;;;22.77;2.58;;;9.30;99.90;;;;;;5048842;28;20083;-82
2023/01/08 09:14:37;;;;;;;19.80;2.78;;;9.30;99.90;;;;;;5065455;28;20039;-82
2023/01/08 09:17:02;;;;;;;29.38;4.03;;;9.40;99.90;;;;;;5076353;28;20031;-82
2023/01/08 09:19:28;;;;;;;25.33;3.10;;;9.50;99.90;;;;;;5065805;28;20029;-82
2023/01/08 09:21:53;;;;;;;20.73;2.20;;;9.50;99.90;;;;;;5060235;28;20020;-81
2023/01/08 09:24:19;;;;;;;12.98;2.35;;;9.50;99.90;;;;;;5045053;28;20028;-81
2023/01/08 09:26:44;;;;;;;19.50;2.20;;;9.50;99.90;;;;;;5057393;28;20386;-82
2023/01/08 09:29:10;;;;;;;14.57;2.83;;;9.50;99.90;;;;;;5056011;28;20036;-81
2023/01/08 09:31:36;;;;;;;21.10;2.90;;;9.60;99.90;;;;;;5055269;28;20033;-82
2023/01/08 09:34:01;;;;;;;21.38;3.33;;;9.70;99.90;;;;;;5060973;28;20031;-81
2023/01/08 09:36:27;;;;;;;17.63;2.55;;;10.00;99.90;;;;;;5064668;28;20117;-81
2023/01/08 09:38:52;;;;;;;23.77;3.03;;;10.20;99.90;;;;;;5047139;28;20025;-82
2023/01/08 09:41:29;;;;;;;32.28;2.80;;;10.30;99.90;;;;;;5063686;28;20032;-81
2023/01/08 09:43:56;;;;;;;25.10;2.63;;;10.40;99.90;;;;;;5059134;28;20052;-82
2023/01/08 09:46:25;;;;;;;15.20;2.75;;;10.40;99.90;;;;;;5037181;28;20040;-82
2023/01/08 09:48:52;;;;;;;20.73;2.92;;;10.40;99.90;;;;;;5054851;28;20070;-82
2023/01/08 09:51:19;;;;;;;21.60;3.60;;;10.50;99.90;;;;;;5041150;28;20116;-82
2023/01/08 09:53:49;;;;;;;23.88;3.60;;;10.50;99.90;;;;;;5062460;28;20415;-82
2023/01/08 09:56:17;;;;;;;22.70;2.25;;;10.60;99.90;;;;;;5064467;28;20113;-82
2023/01/08 09:58:58;;;;;;;17.42;2.20;;;10.80;99.90;;;;;;5066408;28;20029;-81
2023/01/08 10:01:28;;;;;;;17.70;2.28;;;11.30;99.90;;;;;;5047062;28;20028;-82
2023/01/08 10:04:12;;;;;;;16.02;2.03;;;11.50;99.90;;;;;;5064052;28;20119;-82
2023/01/08 10:06:39;;;;;;;24.38;2.45;;;11.70;99.90;;;;;;5067275;28;20224;-81
2023/01/08 10:09:05;;;;;;;16.42;2.85;;;11.60;99.90;;;;;;5067623;28;20029;-81
2023/01/08 10:11:44;;;;;;;21.13;2.50;;;11.60;99.90;;;;;;5066998;28;20510;-82
2023/01/08 10:14:23;;;;;;;20.08;2.17;;;11.60;99.90;;;;;;4707407;28;10000009;-82
2023/01/08 10:16:54;;;;;;;15.40;2.97;;;11.40;99.90;;;;;;5049088;28;20700;-79
2023/01/08 10:19:21;;;;;;;13.05;1.90;;;11.30;99.90;;;;;;5063976;28;20028;-82
2023/01/08 10:21:47;;;;;;;17.38;2.47;;;11.30;99.90;;;;;;5064996;28;20052;-82
2023/01/08 10:24:13;;;;;;;20.95;2.78;;;11.20;99.90;;;;;;5066812;28;20083;-80
2023/01/08 10:26:38;;;;;;;22.83;3.05;;;11.00;99.90;;;;;;5065791;28;20036;-81
2023/01/08 10:29:16;;;;;;;15.25;2.45;;;10.90;99.90;;;;;;5052000;28;20071;-81
2023/01/08 10:31:56;;;;;;;20.20;3.38;;;10.60;99.90;;;;;;5054513;28;20043;-81
2023/01/08 10:34:40;;;;;;;24.92;3.38;;;10.60;99.90;;;;;;5066160;28;20032;-82
2023/01/08 10:37:20;;;;;;;23.95;3.13;;;10.60;99.90;;;;;;5062276;28;20032;-82
2023/01/08 10:39:47;;;;;;;22.02;2.92;;;10.70;99.90;;;;;;5029079;28;20312;-82
2023/01/08 10:42:15;;;;;;;17.15;2.90;;;10.80;99.90;;;;;;5060970;28;20037;-82
2023/01/08 10:44:56;;;;;;;18.02;2.53;;;10.90;99.90;;;;;;5055153;28;20054;-81
2023/01/08 10:47:23;;;;;;;18.25;2.25;;;11.00;99.90;;;;;;5056608;28;20055;-82
2023/01/08 10:49:49;;;;;;;16.48;2.42;;;11.10;99.90;;;;;;5060622;28;20040;-81
2023/01/08 10:52:32;;;;;;;19.65;2.78;;;11.20;99.90;;;;;;5062173;28;20028;-82
2023/01/08 10:55:21;;;;;;;18.63;2.83;;;11.20;99.90;;;;;;5052878;28;20136;-82
2023/01/08 10:57:54;;;;;;;14.82;2.90;;;11.20;99.90;;;;;;5066050;22;20155;-72
2023/01/08 11:00:29;;;;;;;16.23;3.42;;;11.20;99.90;;;;;;4704705;28;9999878;-72
2023/01/08 11:02:59;;;;;;;15.57;2.05;;;11.60;99.90;;;;;;5033591;28;20039;-73
2023/01/08 11:05:33;;;;;;;18.67;2.70;;;11.60;99.90;;;;;;5053961;28;20035;-72
2023/01/08 11:08:02;;;;;;;16.73;2.60;;;11.60;99.90;;;;;;5055890;28;20435;-72
2023/01/08 11:10:28;;;;;;;17.05;2.75;;;11.80;99.90;;;;;;5047227;28;20043;-72
2023/01/08 11:12:59;;;;;;;20.27;2.70;;;11.70;99.90;;;;;;5051450;28;20028;-73
2023/01/08 11:15:34;;;;;;;21.02;2.40;;;12.00;99.90;;;;;;5047635;28;20043;-72
2023/01/08 11:18:20;;;;;;;26.15;3.67;;;12.20;99.90;;;;;;5035090;28;20596;-73
2023/01/08 11:20:47;;;;;;;20.23;3.03;;;12.00;99.90;;;;;;5045046;28;20078;-72
2023/01/08 11:23:25;;;;;;;14.82;2.45;;;11.70;99.90;;;;;;5043097;28;20025;-72
2023/01/08 11:26:02;;;;;;;18.80;2.67;;;11.40;99.90;;;;;;5032907;28;20024;-72
2023/01/08 11:29:13;;;;;;;20.13;2.63;;;11.20;99.90;;;;;;5054288;28;20123;-72
2023/01/08 11:31:57;;;;;;;25.80;3.30;;;11.10;99.90;;;;;;5049501;28;20037;-72
2023/01/08 11:34:45;;;;;;;21.25;2.92;;;11.00;99.90;;;;;;5053029;28;20033;-72
2023/01/08 11:37:21;;;;;;;22.75;2.78;;;11.30;99.90;;;;;;5052618;28;20035;-72
2023/01/08 11:39:48;;;;;;;29.55;3.47;;;11.70;99.90;;;;;;5057770;28;20029;-72
2023/01/08 11:42:20;;;;;;;23.55;3.45;;;11.50;99.90;;;;;;5051869;28;20029;-72
2023/01/08 11:44:48;;;;;;;20.77;2.88;;;11.40;99.90;;;;;;5054382;28;20403;-72
2023/01/08 11:47:22;;;;;;;24.05;2.90;;;11.50;99.90;;;;;;5053423;28;20537;-72
2023/01/08 11:50:09;;;;;;;20.98;2.47;;;11.60;99.90;;;;;;5045465;28;20041;-73
2023/01/08 11:53:03;;;;;;;21.20;2.72;;;11.70;99.90;;;;;;5038464;28;20240;-72
2023/01/08 11:55:48;;;;;;;21.20;3.72;;;11.40;99.90;;;;;;5039063;28;20060;-72
2023/01/08 11:58:50;;;;;;;22.00;2.40;;;11.40;99.90;;;;;;5046338;28;20333;-71
2023/01/08 12:01:19;;;;;;;18.40;2.70;;;11.60;99.90;;;;;;5029891;28;20048;-72
2023/01/08 12:04:13;;;;;;;20.77;3.08;;;12.00;99.90;;;;;;5079166;28;20031;-72
2023/01/08 12:06:57;;;;;;;21.15;3.25;;;12.00;99.90;;;;;;5067773;28;20028;-73
2023/01/08 12:09:39;;;;;;;23.02;2.42;;;12.00;99.90;;;;;;5078076;28;20094;-72
2023/01/08 12:12:04;;;;;;;21.65;2.60;;;11.70;99.90;;;;;;5078169;28;20103;-72
2023/01/08 12:14:53;;;;;;;18.33;2.45;;;11.70;99.90;;;;;;5059530;28;20431;-72
2023/01/08 12:17:43;;;;;;;28.13;3.60;;;11.80;99.90;;;;;;5078694;28;20024;-73
2023/01/08 12:20:17;;;;;;;22.58;3.47;;;11.60;99.90;;;;;;5078993;28;20084;-72
2023/01/08 12:22:53;;;;;;;19.75;2.33;;;11.40;99.90;;;;;;5072621;28;20037;-73
2023/01/08 12:25:49;;;;;;;23.35;2.55;;;11.20;99.90;;;;;;5077101;28;20031;-72
2023/01/08 12:28:31;;;;;;;23.85;2.83;;;11.00;99.90;;;;;;5077781;28;20055;-72
2023/01/08 12:31:19;;;;;;;19.08;2.92;;;11.00;99.90;;;;;;5058910;28;20037;-73
2023/01/08 12:33:52;;;;;;;13.52;2.17;;;11.00;99.90;;;;;;5058432;28;20025;-72
2023/01/08 12:36:32;;;;;;;24.80;2.83;;;10.90;99.90;;;;;;5057254;28;20024;-72
2023/01/08 12:39:23;;;;;;;22.83;3.25;;;10.80;99.90;;;;;;5057609;28;20062;-71
2023/01/08 12:41:53;;;;;;;19.43;2.37;;;10.80;99.90;;;;;;5052171;28;20039;-72
2023/01/08 12:44:25;;;;;;;17.40;2.50;;;10.90;99.90;;;;;;5060740;28;20024;-72
2023/01/08 12:46:54;;;;;;;16.45;2.63;;;10.90;99.90;;;;;;5062099;28;20229;-71
2023/01/08 12:49:35;;;;;;;19.48;2.60;;;10.70;99.90;;;;;;5071894;28;20089;-72
2023/01/08 12:52:15;;;;;;;27.33;3.13;;;10.70;99.90;;;;;;5073904;28;20023;-72
2023/01/08 12:54:56;;;;;;;21.95;2.95;;;10.60;99.90;;;;;;5074594;28;20520;-72
2023/01/08 12:57:30;;;;;;;19.40;2.72;;;10.50;99.90;;;;;;5064306;28;20038;-72